createdAt,value
2023-09-17T00:02:23.545Z,88.04
2023-09-17T00:05:26.146Z,88.03
2023-09-17T00:08:28.402Z,87.69
2023-09-17T00:11:30.491Z,88.20
2023-09-17T00:14:32.561Z,87.86
2023-09-17T00:17:34.660Z,87.50
2023-09-17T00:20:36.564Z,86.70
2023-09-17T00:23:38.451Z,87.69
2023-09-17T00:26:40.455Z,86.48
2023-09-17T00:29:42.344Z,86.87
2023-09-17T00:32:44.911Z,86.21
2023-09-17T00:35:46.759Z,86.19
2023-09-17T00:38:48.556Z,86.54
2023-09-17T00:41:50.455Z,86.53
2023-09-17T00:44:52.389Z,86.52
2023-09-17T00:47:55.802Z,87.50
2023-09-17T00:50:57.866Z,87.22
2023-09-17T00:54:00.434Z,88.28
2023-09-17T00:57:04.153Z,89.80
2023-09-17T01:00:10.991Z,89.18
2023-09-17T01:03:13.876Z,88.79
2023-09-17T01:06:16.062Z,88.49
2023-09-17T01:09:19.454Z,88.59
2023-09-17T01:12:21.886Z,88.78
2023-09-17T01:15:24.291Z,89.91
2023-09-17T01:18:28.867Z,89.88
2023-09-17T01:21:37.379Z,90.21
2023-09-17T01:24:51.448Z,90.15
2023-09-17T01:27:53.444Z,89.61
2023-09-17T01:30:55.435Z,90.25
2023-09-17T01:33:57.631Z,90.14
2023-09-17T01:37:03.834Z,90.07
2023-09-17T01:40:15.203Z,90.30
2023-09-17T01:43:21.582Z,90.22
2023-09-17T01:46:24.236Z,90.29
2023-09-17T01:49:26.968Z,91.32
2023-09-17T01:52:33.745Z,91.21
2023-09-17T01:55:37.012Z,91.27
2023-09-17T01:58:39.475Z,91.54
2023-09-17T02:01:43.488Z,91.40
2023-09-17T02:04:45.430Z,91.13
2023-09-17T02:07:48.267Z,91.05
2023-09-17T02:10:50.178Z,91.17
2023-09-17T02:13:52.570Z,90.76
2023-09-17T02:16:55.810Z,90.16
2023-09-17T02:19:57.878Z,89.52
2023-09-17T02:22:59.768Z,87.70
2023-09-17T02:26:01.786Z,87.60
2023-09-17T02:29:05.226Z,89.16
2023-09-17T02:32:07.514Z,89.30
2023-09-17T02:35:09.746Z,89.67
2023-09-17T02:38:11.877Z,89.49
2023-09-17T02:41:13.762Z,90.12
2023-09-17T02:44:15.645Z,91.50
2023-09-17T02:47:17.685Z,92.56
2023-09-17T02:50:20.972Z,93.41
2023-09-17T02:53:23.021Z,93.40
2023-09-17T02:56:26.056Z,93.31
2023-09-17T02:59:28.094Z,93.63
2023-09-17T03:02:30.172Z,93.58
2023-09-17T03:05:32.119Z,93.07
2023-09-17T03:08:34.541Z,92.74
2023-09-17T03:11:36.520Z,92.96
2023-09-17T03:14:40.056Z,93.12
2023-09-17T03:17:45.567Z,92.94
2023-09-17T03:20:50.416Z,93.77
2023-09-17T03:23:52.427Z,93.98
2023-09-17T03:26:54.986Z,93.70
2023-09-17T03:29:57.438Z,93.20
2023-09-17T03:33:04.877Z,93.08
2023-09-17T03:36:14.085Z,93.00
2023-09-17T03:39:16.254Z,93.17
2023-09-17T03:42:18.156Z,93.68
2023-09-17T03:45:20.128Z,94.16
2023-09-17T03:48:22.905Z,94.20
2023-09-17T03:51:25.140Z,94.56
2023-09-17T03:54:28.117Z,94.82
2023-09-17T03:57:30.431Z,94.93
2023-09-17T04:00:32.924Z,94.60
2023-09-17T04:03:37.891Z,92.75
2023-09-17T04:06:40.039Z,91.81
2023-09-17T04:09:44.044Z,91.83
2023-09-17T04:12:46.363Z,91.09
2023-09-17T04:15:50.126Z,92.04
2023-09-17T04:18:52.027Z,92.61
2023-09-17T04:21:53.926Z,93.05
2023-09-17T04:24:56.645Z,93.47
2023-09-17T04:27:58.743Z,93.23
2023-09-17T04:31:00.658Z,93.86
2023-09-17T04:34:02.618Z,94.19
2023-09-17T04:37:05.315Z,94.16
2023-09-17T04:40:12.692Z,93.95
2023-09-17T04:43:16.498Z,92.72
2023-09-17T04:46:18.534Z,93.14
2023-09-17T04:49:26.131Z,94.20
2023-09-17T04:52:28.109Z,95.37
2023-09-17T04:55:30.213Z,95.45
2023-09-17T04:58:32.093Z,94.72
2023-09-17T05:01:36.476Z,93.34
2023-09-17T05:04:38.559Z,93.02
2023-09-17T05:07:43.524Z,93.93
2023-09-17T05:10:46.086Z,94.16
2023-09-17T05:13:48.309Z,94.13
2023-09-17T05:16:50.371Z,94.32
2023-09-17T05:19:52.534Z,95.21
2023-09-17T05:22:54.597Z,96.31
2023-09-17T05:25:56.594Z,96.71
2023-09-17T05:29:02.044Z,97.89
2023-09-17T05:32:04.833Z,97.87
2023-09-17T05:35:08.529Z,97.70
2023-09-17T05:38:10.547Z,97.46
2023-09-17T05:41:13.293Z,97.52
2023-09-17T05:44:15.286Z,97.16
2023-09-17T05:47:17.577Z,96.44
2023-09-17T05:50:19.932Z,95.44
2023-09-17T05:53:22.285Z,94.50
2023-09-17T05:56:24.179Z,94.54
2023-09-17T05:59:26.658Z,95.53
2023-09-17T06:02:28.605Z,96.00
2023-09-17T06:05:30.534Z,95.43
2023-09-17T06:08:32.624Z,95.64
2023-09-17T06:11:34.873Z,96.17
2023-09-17T06:14:36.882Z,97.34
2023-09-17T06:17:39.265Z,98.09
2023-09-17T06:20:41.338Z,97.88
2023-09-17T06:23:43.398Z,97.89
2023-09-17T06:26:45.322Z,98.46
2023-09-17T06:29:47.501Z,98.71
2023-09-17T06:32:50.018Z,99.29
2023-09-17T06:35:52.056Z,99.34
2023-09-17T06:38:53.904Z,99.23
2023-09-17T06:41:55.963Z,99.06
2023-09-17T06:44:57.860Z,98.96
2023-09-17T06:47:59.985Z,99.06
2023-09-17T06:51:02.853Z,98.37
2023-09-17T06:54:04.884Z,97.74
2023-09-17T06:57:06.708Z,95.66
2023-09-17T07:00:09.021Z,94.31
2023-09-17T07:03:11.023Z,94.29
2023-09-17T07:06:12.933Z,92.47
2023-09-17T07:09:14.800Z,91.51
2023-09-17T07:12:17.635Z,92.47
2023-09-17T07:15:21.377Z,92.85
2023-09-17T07:18:23.809Z,91.90
2023-09-17T07:21:25.817Z,89.81
2023-09-17T07:24:27.664Z,89.38
2023-09-17T07:27:30.834Z,89.81
2023-09-17T07:30:36.015Z,88.57
2023-09-17T07:33:40.357Z,88.23
2023-09-17T07:36:42.394Z,87.10
2023-09-17T07:39:46.423Z,85.73
2023-09-17T07:42:48.850Z,83.79
2023-09-17T07:45:50.739Z,83.50
2023-09-17T07:48:52.780Z,83.94
2023-09-17T07:51:54.800Z,83.75
2023-09-17T07:54:56.631Z,83.13
2023-09-17T07:57:58.641Z,85.18
2023-09-17T08:01:00.593Z,84.94
2023-09-17T08:04:02.597Z,83.39
2023-09-17T08:07:05.599Z,82.24
2023-09-17T08:10:08.041Z,81.45
2023-09-17T08:13:10.269Z,82.48
2023-09-17T08:16:12.203Z,83.04
2023-09-17T08:19:14.195Z,82.40
2023-09-17T08:22:16.739Z,80.11
2023-09-17T08:25:19.653Z,79.34
2023-09-17T08:28:24.007Z,78.20
2023-09-17T08:31:26.846Z,77.72
2023-09-17T08:34:28.890Z,78.16
2023-09-17T08:37:31.215Z,77.58
2023-09-17T08:40:35.945Z,77.96
2023-09-17T08:43:40.367Z,75.94
2023-09-17T08:46:44.228Z,76.37
2023-09-17T08:49:46.177Z,76.78
2023-09-17T08:52:55.745Z,76.55
2023-09-17T08:56:01.258Z,77.26
2023-09-17T08:59:10.374Z,77.14
2023-09-17T09:02:21.570Z,75.83
2023-09-17T09:05:26.636Z,74.60
2023-09-17T09:08:30.081Z,74.79
2023-09-17T09:11:35.914Z,76.00
2023-09-17T09:14:37.851Z,77.39
2023-09-17T09:17:40.448Z,76.17
2023-09-17T09:20:43.521Z,74.84
2023-09-17T09:23:45.694Z,74.35
2023-09-17T09:26:48.454Z,73.07
2023-09-17T09:29:50.384Z,73.08
2023-09-17T09:32:52.727Z,73.70
2023-09-17T09:35:56.125Z,74.81
2023-09-17T09:38:58.370Z,75.54
2023-09-17T09:42:00.871Z,75.70
2023-09-17T09:45:04.279Z,75.05
2023-09-17T09:48:14.348Z,73.92
2023-09-17T09:51:19.834Z,73.29
2023-09-17T09:54:21.699Z,73.13
2023-09-17T09:57:26.648Z,72.36
2023-09-17T10:00:30.391Z,71.56
2023-09-17T10:03:33.078Z,69.56
2023-09-17T10:06:37.381Z,67.81
2023-09-17T10:09:40.131Z,67.30
2023-09-17T10:12:42.179Z,67.22
2023-09-17T10:15:45.035Z,66.31
2023-09-17T10:18:47.763Z,66.52
2023-09-17T10:21:51.109Z,66.16
2023-09-17T10:24:53.610Z,64.38
2023-09-17T10:27:56.736Z,63.89
2023-09-17T10:31:00.421Z,63.70
2023-09-17T10:34:04.888Z,62.80
2023-09-17T10:37:08.003Z,63.12
2023-09-17T10:40:11.264Z,62.05
2023-09-17T10:43:13.408Z,62.80
2023-09-17T10:46:17.110Z,62.80
2023-09-17T10:49:20.011Z,62.67
2023-09-17T10:52:22.855Z,62.59
2023-09-17T10:55:29.142Z,62.32
2023-09-17T10:58:38.336Z,63.25
2023-09-17T11:01:43.724Z,62.34
2023-09-17T11:04:47.133Z,63.20
2023-09-17T11:07:54.114Z,63.19
2023-09-17T11:10:56.471Z,64.02
2023-09-17T11:13:58.815Z,64.45
2023-09-17T11:17:02.085Z,65.39
2023-09-17T11:20:13.862Z,65.61
2023-09-17T11:23:16.318Z,65.59
2023-09-17T11:26:26.215Z,65.87
2023-09-17T11:29:45.258Z,66.52
2023-09-17T11:32:54.677Z,66.05
2023-09-17T11:35:57.935Z,65.59
2023-09-17T11:39:05.010Z,63.67
2023-09-17T11:42:14.672Z,62.90
2023-09-17T11:45:17.039Z,61.14
2023-09-17T11:48:19.046Z,59.96
2023-09-17T11:51:22.400Z,58.86
2023-09-17T11:54:31.843Z,58.76
2023-09-17T11:57:35.124Z,59.52
2023-09-17T12:00:37.112Z,60.31
2023-09-17T12:03:39.136Z,60.66
2023-09-17T12:06:47.414Z,58.06
2023-09-17T12:09:58.771Z,58.49
2023-09-17T12:13:00.833Z,57.71
2023-09-17T12:16:02.743Z,58.27
2023-09-17T12:19:17.539Z,58.70
2023-09-17T12:22:20.934Z,59.25
2023-09-17T12:25:22.802Z,59.47
2023-09-17T12:28:28.984Z,60.83
2023-09-17T12:31:31.520Z,59.41
2023-09-17T12:34:37.467Z,58.74
2023-09-17T12:37:39.854Z,58.59
2023-09-17T12:40:42.494Z,58.83
2023-09-17T12:43:44.609Z,59.26
2023-09-17T12:46:47.686Z,59.91
2023-09-17T12:49:49.703Z,60.28
2023-09-17T12:52:52.312Z,59.77
2023-09-17T12:55:58.553Z,59.61
2023-09-17T12:59:02.140Z,59.97
2023-09-17T13:02:05.585Z,59.18
2023-09-17T13:05:09.254Z,55.99
2023-09-17T13:08:11.361Z,57.16
2023-09-17T13:11:13.461Z,55.36
2023-09-17T13:14:15.506Z,55.03
2023-09-17T13:17:18.395Z,55.23
2023-09-17T13:20:21.002Z,54.89
2023-09-17T13:23:23.681Z,54.14
2023-09-17T13:26:27.333Z,53.75
2023-09-17T13:29:43.170Z,52.51
2023-09-17T13:32:48.609Z,54.78
2023-09-17T13:35:54.755Z,54.94
2023-09-17T13:38:57.565Z,55.32
2023-09-17T13:41:59.596Z,55.53
2023-09-17T13:45:01.503Z,56.23
2023-09-17T13:48:03.586Z,56.63
2023-09-17T13:51:05.737Z,57.06
2023-09-17T13:54:07.712Z,56.84
2023-09-17T13:57:09.750Z,56.64
2023-09-17T14:00:15.293Z,56.78
2023-09-17T14:03:17.810Z,57.07
2023-09-17T14:06:19.858Z,57.21
2023-09-17T14:09:22.301Z,56.91
2023-09-17T14:12:26.454Z,57.96
2023-09-17T14:15:28.615Z,57.04
2023-09-17T14:18:30.533Z,56.38
2023-09-17T14:21:38.617Z,56.28
2023-09-17T14:24:40.593Z,55.29
2023-09-17T14:27:42.589Z,55.87
2023-09-17T14:30:45.027Z,54.97
2023-09-17T14:33:46.900Z,55.29
2023-09-17T14:36:49.021Z,54.82
2023-09-17T14:39:52.218Z,55.62
2023-09-17T14:42:54.149Z,54.56
2023-09-17T14:45:56.171Z,54.95
2023-09-17T14:48:58.012Z,55.51
2023-09-17T14:51:59.903Z,55.95
2023-09-17T14:55:05.378Z,56.33
2023-09-17T14:58:07.426Z,57.35
2023-09-17T15:01:12.036Z,58.08
2023-09-17T15:04:21.301Z,58.87
2023-09-17T15:07:23.636Z,59.32
2023-09-17T15:10:25.633Z,59.64
2023-09-17T15:13:27.445Z,60.30
2023-09-17T15:16:29.331Z,61.34
2023-09-17T15:19:31.431Z,60.51
2023-09-17T15:22:34.745Z,60.38
2023-09-17T15:25:36.849Z,59.75
2023-09-17T15:28:39.023Z,60.04
2023-09-17T15:31:41.396Z,60.28
2023-09-17T15:34:44.364Z,59.80
2023-09-17T15:37:47.756Z,60.19
2023-09-17T15:40:53.159Z,60.09
2023-09-17T15:43:55.617Z,59.78
2023-09-17T15:46:59.245Z,60.44
2023-09-17T15:50:01.421Z,60.83
2023-09-17T15:53:03.580Z,62.14
2023-09-17T15:56:05.736Z,62.50
2023-09-17T15:59:07.819Z,62.10
2023-09-17T16:02:10.205Z,61.76
2023-09-17T16:05:12.771Z,62.14
2023-09-17T16:08:15.243Z,62.06
2023-09-17T16:11:17.235Z,62.88
2023-09-17T16:14:19.241Z,62.99
2023-09-17T16:17:21.198Z,63.67
2023-09-17T16:20:23.909Z,63.17
2023-09-17T16:23:25.892Z,63.83
2023-09-17T16:26:27.756Z,64.12
2023-09-17T16:29:29.676Z,64.06
2023-09-17T16:32:32.673Z,64.50
2023-09-17T16:35:34.661Z,65.58
2023-09-17T16:38:36.571Z,65.22
2023-09-17T16:41:38.575Z,66.05
2023-09-17T16:44:40.520Z,65.77
2023-09-17T16:47:42.592Z,66.35
2023-09-17T16:50:44.879Z,67.04
2023-09-17T16:53:46.947Z,67.20
2023-09-17T16:56:48.952Z,67.91
2023-09-17T16:59:50.852Z,68.05
2023-09-17T17:02:53.213Z,67.53
2023-09-17T17:05:55.580Z,67.51
2023-09-17T17:08:57.618Z,67.67
2023-09-17T17:11:59.665Z,68.40
2023-09-17T17:15:01.607Z,69.13
2023-09-17T17:18:03.696Z,69.23
2023-09-17T17:21:05.651Z,69.50
2023-09-17T17:24:08.383Z,69.80
2023-09-17T17:27:10.276Z,69.59
2023-09-17T17:30:12.765Z,69.54
2023-09-17T17:33:14.733Z,70.04
2023-09-17T17:36:17.002Z,70.23
2023-09-17T17:39:19.111Z,70.46
2023-09-17T17:42:20.994Z,70.73
2023-09-17T17:45:23.820Z,70.98
2023-09-17T17:48:27.354Z,71.15
2023-09-17T17:51:29.578Z,71.53
2023-09-17T17:54:31.781Z,72.34
2023-09-17T17:57:33.815Z,72.99
2023-09-17T18:00:35.701Z,73.60
2023-09-17T18:03:38.979Z,73.87
2023-09-17T18:06:41.047Z,74.59
2023-09-17T18:09:43.590Z,75.59
2023-09-17T18:12:45.714Z,75.80
2023-09-17T18:15:47.921Z,76.34
2023-09-17T18:18:50.092Z,76.70
2023-09-17T18:21:52.382Z,77.15
2023-09-17T18:24:54.309Z,77.55
2023-09-17T18:27:56.493Z,78.00
2023-09-17T18:30:58.810Z,78.17
2023-09-17T18:34:00.821Z,78.60
2023-09-17T18:37:03.758Z,79.01
2023-09-17T18:40:06.598Z,79.21
2023-09-17T18:43:08.634Z,79.21
2023-09-17T18:46:10.988Z,79.41
2023-09-17T18:49:18.364Z,79.92
2023-09-17T18:52:20.481Z,80.11
2023-09-17T18:55:22.622Z,81.04
2023-09-17T18:58:24.871Z,80.99
2023-09-17T19:01:27.183Z,81.77
2023-09-17T19:04:30.473Z,82.03
2023-09-17T19:07:33.354Z,82.40
2023-09-17T19:10:36.364Z,82.73
2023-09-17T19:13:38.567Z,82.87
2023-09-17T19:16:40.663Z,82.97
2023-09-17T19:19:43.202Z,83.39
2023-09-17T19:22:45.369Z,83.68
2023-09-17T19:25:47.517Z,84.07
2023-09-17T19:28:50.221Z,83.95
2023-09-17T19:31:52.565Z,83.55
2023-09-17T19:34:56.645Z,83.52
2023-09-17T19:37:58.803Z,83.32
2023-09-17T19:41:01.523Z,83.07
2023-09-17T19:44:03.753Z,82.80
2023-09-17T19:47:06.728Z,82.74
2023-09-17T19:50:09.234Z,82.70
2023-09-17T19:53:11.303Z,82.43
2023-09-17T19:56:13.213Z,82.72
2023-09-17T19:59:15.888Z,82.88
2023-09-17T20:02:18.225Z,83.01
2023-09-17T20:05:20.452Z,83.32
2023-09-17T20:08:22.446Z,83.15
2023-09-17T20:11:24.407Z,83.07
2023-09-17T20:14:26.709Z,82.99
2023-09-17T20:17:29.801Z,82.67
2023-09-17T20:20:32.308Z,82.73
2023-09-17T20:23:40.002Z,83.05
2023-09-17T20:26:45.568Z,82.98
2023-09-17T20:29:47.696Z,82.81
2023-09-17T20:32:51.650Z,82.72
2023-09-17T20:35:53.902Z,83.08
2023-09-17T20:38:57.731Z,83.39
2023-09-17T20:41:59.708Z,83.50
2023-09-17T20:45:01.668Z,83.71
2023-09-17T20:48:03.965Z,83.90
2023-09-17T20:51:05.925Z,83.86
2023-09-17T20:54:07.859Z,84.01
2023-09-17T20:57:09.711Z,84.31
2023-09-17T21:00:12.291Z,84.29
2023-09-17T21:03:15.730Z,84.50
2023-09-17T21:06:17.775Z,84.63
2023-09-17T21:09:27.522Z,84.93
2023-09-17T21:12:29.886Z,84.93
2023-09-17T21:15:31.859Z,84.91
2023-09-17T21:18:33.815Z,85.18
2023-09-17T21:21:36.144Z,85.16
2023-09-17T21:24:38.950Z,85.53
2023-09-17T21:27:40.957Z,85.80
2023-09-17T21:30:44.973Z,86.03
2023-09-17T21:33:46.814Z,86.30
2023-09-17T21:36:50.670Z,86.38
2023-09-17T21:39:52.568Z,86.25
2023-09-17T21:42:54.546Z,86.39
2023-09-17T21:45:56.464Z,86.55
2023-09-17T21:48:58.431Z,86.60
2023-09-17T21:52:00.364Z,86.68
2023-09-17T21:55:02.234Z,86.98
2023-09-17T21:58:04.255Z,87.22
2023-09-17T22:01:06.193Z,87.16
2023-09-17T22:04:08.209Z,87.42
2023-09-17T22:07:12.961Z,87.31
2023-09-17T22:10:16.521Z,87.54
2023-09-17T22:13:19.697Z,87.71
2023-09-17T22:16:21.655Z,87.75
2023-09-17T22:19:23.530Z,87.94
2023-09-17T22:22:25.602Z,87.65
2023-09-17T22:25:27.551Z,87.66
2023-09-17T22:28:29.409Z,88.14
2023-09-17T22:31:31.372Z,88.34
2023-09-17T22:34:33.359Z,88.38
2023-09-17T22:37:36.809Z,88.14
2023-09-17T22:40:42.648Z,88.37
2023-09-17T22:43:45.283Z,88.57
2023-09-17T22:46:47.185Z,88.68
2023-09-17T22:49:49.235Z,88.61
2023-09-17T22:52:51.060Z,88.51
2023-09-17T22:55:52.983Z,88.34
2023-09-17T22:58:55.167Z,88.47
2023-09-17T23:01:57.359Z,89.14
2023-09-17T23:04:59.364Z,89.53
2023-09-17T23:08:01.711Z,89.68
2023-09-17T23:11:06.213Z,89.78
2023-09-17T23:14:09.648Z,89.99
2023-09-17T23:17:11.954Z,90.14
2023-09-17T23:20:14.232Z,90.69
2023-09-17T23:23:16.563Z,89.96
2023-09-17T23:26:18.656Z,90.70
2023-09-17T23:29:20.825Z,91.75
2023-09-17T23:32:22.837Z,91.98
2023-09-17T23:35:25.379Z,92.20
2023-09-17T23:38:31.457Z,92.62
2023-09-17T23:41:33.611Z,93.22
2023-09-17T23:44:35.632Z,93.64
2023-09-17T23:47:37.697Z,93.66
2023-09-17T23:50:42.042Z,94.77
2023-09-17T23:53:43.940Z,95.40
2023-09-17T23:56:45.999Z,95.76
2023-09-17T23:59:48.037Z,96.22
